Time;durP1;ratioP1;P1;durP2;ratioP2;P2;SDS_P1;SDS_P2;PMS_P1;PMS_P2;Temp;Humidity;BMP_temperature;BMP_pressure;BME280_temperature;BME280_humidity;BME280_pressure;Samples;Min_cycle;Max_cycle;Signal;HPM_P1;HPM_P2
2023/08/20 00:00:33;;;;;;;8.75;1.65;;;;;;;-146.27;80.45;81552.63;5026676;28;20033;-72
2023/08/20 00:03:03;;;;;;;8.73;1.60;;;;;;;-146.27;80.68;81538.56;5028067;28;20526;-72
2023/08/20 00:05:30;;;;;;;5.07;1.48;;;;;;;-146.27;80.98;81564.69;5027976;28;20049;-71
2023/08/20 00:07:56;;;;;;;7.38;2.35;;;;;;;-146.27;80.69;81552.63;5026672;28;20042;-72
2023/08/20 00:10:21;;;;;;;10.77;1.65;;;;;;;-146.27;81.32;81562.66;5022529;28;20037;-72
2023/08/20 00:12:47;;;;;;;6.20;1.40;;;;;;;-146.27;80.99;81560.66;5041777;28;20440;-71
2023/08/20 00:15:12;;;;;;;5.65;1.70;;;;;;;-146.27;80.85;81540.56;5028143;28;20040;-72
2023/08/20 00:17:40;;;;;;;10.23;1.77;;;;;;;-146.27;80.78;81498.41;5027668;28;20038;-73
2023/08/20 00:20:10;;;;;;;6.15;1.60;;;;;;;-146.27;79.93;81508.44;5026309;28;20470;-72
2023/08/20 00:22:36;;;;;;;9.18;1.77;;;;;;;-146.27;80.73;81500.41;5027010;28;20022;-72
2023/08/20 00:25:03;;;;;;;9.95;2.25;;;;;;;-146.27;80.88;81506.44;5027535;28;20037;-72
2023/08/20 00:27:29;;;;;;;6.38;1.52;;;;;;;-146.27;81.50;81490.38;5024934;28;20036;-72
2023/08/20 00:29:54;;;;;;;6.70;1.67;;;;;;;-146.27;81.53;81530.53;5025455;28;20021;-72
2023/08/20 00:32:19;;;;;;;5.72;1.30;;;;;;;-146.27;81.81;81574.72;5027815;28;20033;-71
2023/08/20 00:34:45;;;;;;;7.65;1.75;;;;;;;-146.27;81.73;81546.59;5026900;28;20055;-72
2023/08/20 00:37:10;;;;;;;6.22;1.48;;;;;;;-146.27;82.00;81524.50;5027098;28;20112;-72
2023/08/20 00:39:36;;;;;;;9.30;1.73;;;;;;;-146.27;82.08;81516.47;5027688;28;20037;-72
2023/08/20 00:42:02;;;;;;;6.15;1.63;;;;;;;-146.27;81.68;81506.44;5025822;28;20506;-72
2023/08/20 00:44:27;;;;;;;5.78;1.83;;;;;;;-146.27;81.19;81480.31;5026271;28;20033;-72
2023/08/20 00:46:53;;;;;;;8.07;1.55;;;;;;;-146.27;81.11;81440.16;5026509;28;20021;-73
2023/08/20 00:49:18;;;;;;;6.80;1.40;;;;;;;-146.27;80.13;81436.16;5028025;28;20033;-71
2023/08/20 00:51:45;;;;;;;8.30;2.22;;;;;;;-146.27;80.29;81444.19;5023875;28;20056;-72
2023/08/20 00:54:11;;;;;;;7.20;1.65;;;;;;;-146.27;79.91;81460.25;5020640;28;20081;-71
2023/08/20 00:56:37;;;;;;;9.30;2.08;;;;;;;-146.27;80.72;81418.06;5025481;28;20497;-71
2023/08/20 00:59:04;;;;;;;7.65;1.55;;;;;;;-146.27;80.13;81430.13;5023331;28;20416;-71
2023/08/20 01:01:29;;;;;;;7.55;1.40;;;;;;;-146.27;80.66;81460.25;5026686;28;20052;-71
2023/08/20 01:03:55;;;;;;;5.20;1.48;;;;;;;-146.27;81.92;81450.19;5026931;28;20493;-71
2023/08/20 01:06:58;;;;;;;6.07;1.60;;;;;;;-146.27;83.09;81476.31;5026891;28;20033;-71
2023/08/20 01:09:34;;;;;;;7.40;1.70;;;;;;;-146.27;82.06;81476.31;5026843;28;20350;-70
2023/08/20 01:12:03;;;;;;;10.48;2.03;;;;;;;-146.27;82.15;81470.28;5026062;28;20334;-72
2023/08/20 01:14:28;;;;;;;8.20;1.65;;;;;;;-146.27;82.49;81496.41;5025584;28;20022;-72
2023/08/20 01:16:53;;;;;;;4.68;1.38;;;;;;;-146.27;82.68;81504.44;5026471;28;20044;-71
2023/08/20 01:19:21;;;;;;;10.90;2.20;;;;;;;-146.27;83.36;81496.41;5027699;28;20170;-71
2023/08/20 01:22:05;;;;;;;5.18;1.20;;;;;;;-146.27;83.39;81472.28;5028156;28;20497;-72
2023/08/20 01:25:15;;;;;;;10.75;1.48;;;;;;;-146.27;83.63;81536.56;5027807;28;20096;-72
2023/08/20 01:28:07;;;;;;;8.43;2.33;;;;;;;-146.27;83.62;81564.69;5016380;28;20557;-71
2023/08/20 01:30:34;;;;;;;8.63;1.52;;;;;;;-146.27;84.07;81552.63;5024402;28;20037;-71
2023/08/20 01:32:59;;;;;;;5.85;1.45;;;;;;;-146.27;84.45;81580.75;5028521;28;20552;-71
2023/08/20 01:35:28;;;;;;;9.13;1.52;;;;;;;-146.27;84.44;81570.69;5025640;28;20091;-71
2023/08/20 01:37:53;;;;;;;7.80;1.52;;;;;;;-146.27;85.45;81626.94;5029100;28;20053;-71
2023/08/20 01:40:18;;;;;;;13.20;1.50;;;;;;;-146.27;85.82;81651.03;5029101;28;20516;-72
2023/08/20 01:42:44;;;;;;;6.55;1.33;;;;;;;-146.27;85.50;81586.78;5029273;28;20409;-72
2023/08/20 01:45:10;;;;;;;8.48;1.55;;;;;;;-146.27;85.78;81649.03;5028794;28;20018;-72
2023/08/20 01:47:36;;;;;;;7.05;1.98;;;;;;;-146.27;86.08;81703.25;5032076;28;20112;-71
2023/08/20 01:50:02;;;;;;;4.40;1.77;;;;;;;-146.27;85.88;81699.25;5030882;28;20116;-72
2023/08/20 01:52:29;;;;;;;8.75;1.60;;;;;;;-146.27;86.24;81723.34;5029454;28;20036;-72
2023/08/20 01:54:55;;;;;;;7.75;1.70;;;;;;;-146.27;87.05;81689.19;5028703;28;20241;-72
2023/08/20 01:57:20;;;;;;;10.57;2.20;;;;;;;-146.27;86.83;81691.22;5028917;28;20040;-72
2023/08/20 01:59:47;;;;;;;8.90;1.80;;;;;;;-146.27;87.55;81745.44;5027753;28;20025;-71
2023/08/20 02:02:12;;;;;;;7.88;1.73;;;;;;;-146.27;88.26;81689.19;5029185;28;20334;-72
2023/08/20 02:04:37;;;;;;;10.68;2.20;;;;;;;-146.27;87.45;81677.16;5028588;28;20025;-72
2023/08/20 02:07:03;;;;;;;5.47;1.60;;;;;;;-146.27;87.34;81693.22;5030483;28;20580;-72
2023/08/20 02:09:28;;;;;;;9.45;2.00;;;;;;;-146.27;87.72;81729.38;5030295;28;20024;-72
2023/08/20 02:11:53;;;;;;;7.85;1.40;;;;;;;-146.27;88.08;81709.28;5027258;28;20030;-71
2023/08/20 02:14:19;;;;;;;5.18;1.20;;;;;;;-146.27;87.18;81703.25;5029020;28;20029;-72
2023/08/20 02:16:46;;;;;;;9.40;1.90;;;;;;;-146.27;87.38;81725.34;5029108;28;20049;-72
2023/08/20 02:19:11;;;;;;;9.20;2.08;;;;;;;-146.27;88.19;81741.41;5029125;28;20033;-71
2023/08/20 02:21:37;;;;;;;10.75;2.53;;;;;;;-146.27;87.99;81777.56;5028875;28;20622;-72
2023/08/20 02:24:03;;;;;;;5.80;1.80;;;;;;;-146.27;88.30;81759.50;5019584;28;20025;-72
2023/08/20 02:26:28;;;;;;;8.98;2.00;;;;;;;-146.27;88.84;81757.50;5029680;28;20029;-72
2023/08/20 02:28:53;;;;;;;10.07;2.17;;;;;;;-146.27;88.71;81773.56;5028941;28;20026;-72
2023/08/20 02:31:19;;;;;;;4.95;1.90;;;;;;;-146.27;88.64;81771.53;5030284;28;20511;-72
2023/08/20 02:33:44;;;;;;;6.35;1.70;;;;;;;-146.27;89.04;81803.69;5030033;28;20034;-72
2023/08/20 02:36:10;;;;;;;8.93;1.77;;;;;;;-146.27;90.08;81781.59;5025439;28;20017;-71
2023/08/20 02:38:35;;;;;;;8.60;2.00;;;;;;;-146.27;89.13;81769.53;5028268;28;20397;-72
2023/08/20 02:41:02;;;;;;;5.88;1.65;;;;;;;-146.27;88.94;81757.50;5027686;28;20082;-72
2023/08/20 02:43:28;;;;;;;11.90;1.85;;;;;;;-146.27;89.19;81769.53;5030306;28;20030;-72
2023/08/20 02:45:54;;;;;;;9.38;1.98;;;;;;;-146.27;89.24;81749.47;5025615;28;20033;-72
2023/08/20 02:48:19;;;;;;;7.97;1.80;;;;;;;-146.27;89.24;81757.50;5028626;28;20086;-72
2023/08/20 02:50:44;;;;;;;8.07;1.95;;;;;;;-146.27;88.63;81721.34;5027610;28;20422;-72
2023/08/20 02:53:10;;;;;;;9.13;1.92;;;;;;;-146.27;89.02;81713.31;5028089;28;20149;-72
2023/08/20 02:55:35;;;;;;;10.63;2.50;;;;;;;-146.27;88.83;81717.31;5030788;28;20467;-72
2023/08/20 02:58:02;;;;;;;7.50;1.92;;;;;;;-146.27;88.80;81717.31;5030707;28;20061;-73
2023/08/20 03:00:29;;;;;;;11.80;2.08;;;;;;;-146.27;88.67;81715.31;5028407;28;21609;-72
2023/08/20 03:02:54;;;;;;;11.18;2.17;;;;;;;-146.27;88.95;81681.16;5031190;28;20022;-72
2023/08/20 03:05:20;;;;;;;13.10;2.00;;;;;;;-146.27;88.89;81721.34;5028170;28;20403;-72
2023/08/20 03:07:45;;;;;;;4.65;1.50;;;;;;;-146.27;89.38;81725.34;5029583;28;20126;-72
2023/08/20 03:10:12;;;;;;;17.00;2.22;;;;;;;-146.27;88.50;81693.22;5030196;28;20394;-72
2023/08/20 03:12:37;;;;;;;9.25;1.92;;;;;;;-146.27;89.18;81721.34;5028741;28;20038;-71
2023/08/20 03:15:03;;;;;;;8.82;2.08;;;;;;;-146.27;89.04;81685.19;5030581;28;20418;-72
2023/08/20 03:17:28;;;;;;;7.70;1.63;;;;;;;-146.27;88.88;81703.25;5028305;28;20163;-72
2023/08/20 03:19:56;;;;;;;7.78;1.77;;;;;;;-146.27;88.73;81743.44;5029003;28;20108;-71
2023/08/20 03:22:22;;;;;;;11.50;2.45;;;;;;;-146.27;89.24;81753.47;5029544;28;20052;-72
2023/08/20 03:24:47;;;;;;;11.80;1.80;;;;;;;-146.27;89.26;81765.53;5028394;28;20025;-73
2023/08/20 03:27:13;;;;;;;9.27;1.85;;;;;;;-146.27;89.45;81785.59;5024838;28;20041;-72
2023/08/20 03:29:38;;;;;;;10.27;1.85;;;;;;;-146.27;89.91;81803.69;5022556;28;20545;-72
2023/08/20 03:32:04;;;;;;;12.52;2.05;;;;;;;-146.27;89.51;81791.63;5022584;28;20389;-72
2023/08/20 03:34:29;;;;;;;8.90;1.67;;;;;;;-146.27;89.94;81755.47;5030779;28;20033;-72
2023/08/20 03:36:54;;;;;;;11.02;1.67;;;;;;;-146.27;90.21;81795.66;5022849;28;20104;-72
2023/08/20 03:39:20;;;;;;;11.25;2.28;;;;;;;-146.27;90.34;81789.63;5022089;28;20045;-71
2023/08/20 03:41:45;;;;;;;12.70;2.40;;;;;;;-146.27;90.36;81795.66;5026013;28;20040;-72
2023/08/20 03:44:11;;;;;;;13.65;2.53;;;;;;;-146.27;90.26;81815.72;5027352;28;20029;-72
2023/08/20 03:46:36;;;;;;;11.38;1.45;;;;;;;-146.27;90.33;81797.66;5028704;28;20029;-72
2023/08/20 03:49:01;;;;;;;9.27;2.90;;;;;;;-146.27;90.87;81813.72;5029123;28;20470;-72
2023/08/20 03:51:27;;;;;;;18.15;2.50;;;;;;;-146.27;90.75;81803.69;5027518;28;20599;-72
2023/08/20 03:53:52;;;;;;;7.03;2.33;;;;;;;-146.27;90.15;81753.47;5027238;28;20038;-72
2023/08/20 03:56:17;;;;;;;7.88;1.80;;;;;;;-146.27;90.58;81878.00;5027832;28;20055;-72
2023/08/20 03:58:43;;;;;;;8.98;1.85;;;;;;;-146.27;90.99;81847.88;5030576;28;20071;-72
2023/08/20 04:01:08;;;;;;;13.55;2.53;;;;;;;-146.27;90.82;81801.69;5028509;28;20040;-72
2023/08/20 04:03:33;;;;;;;10.00;2.05;;;;;;;-146.27;90.77;81809.72;5030333;28;20021;-72
2023/08/20 04:05:59;;;;;;;11.55;2.33;;;;;;;-146.27;90.96;81878.00;5029006;28;20027;-72
2023/08/20 04:08:24;;;;;;;13.05;2.38;;;;;;;-146.27;91.33;81857.91;5027075;28;20137;-71
2023/08/20 04:10:50;;;;;;;9.65;1.95;;;;;;;-146.27;91.41;81845.88;5028377;28;20083;-72
2023/08/20 04:13:16;;;;;;;9.27;1.65;;;;;;;-146.27;91.25;81853.91;5030195;28;20053;-72
2023/08/20 04:15:41;;;;;;;10.07;2.22;;;;;;;-146.27;91.34;81833.81;5029204;28;20025;-72
2023/08/20 04:18:07;;;;;;;8.35;1.83;;;;;;;-146.27;91.39;81865.94;5026635;28;20040;-72
2023/08/20 04:20:33;;;;;;;8.50;2.05;;;;;;;-146.27;91.99;81873.97;5027693;28;20403;-72
2023/08/20 04:22:58;;;;;;;8.82;1.60;;;;;;;-146.27;91.41;81869.97;5027549;28;20053;-72
2023/08/20 04:25:24;;;;;;;10.75;2.15;;;;;;;-146.27;92.28;81847.88;5025066;28;20037;-72
2023/08/20 04:27:49;;;;;;;12.82;2.58;;;;;;;-146.27;91.56;81869.97;5025810;28;20021;-72
2023/08/20 04:30:14;;;;;;;13.25;2.75;;;;;;;-146.27;91.95;81908.13;5028226;28;20025;-73
2023/08/20 04:32:40;;;;;;;13.82;2.08;;;;;;;-146.27;92.31;81898.09;5028704;28;20040;-71
2023/08/20 04:35:06;;;;;;;11.35;1.98;;;;;;;-146.27;92.25;81894.06;5026326;28;20037;-72
2023/08/20 04:37:31;;;;;;;11.40;1.92;;;;;;;-146.27;92.31;81904.13;5027556;28;20124;-72
2023/08/20 04:39:57;;;;;;;15.00;1.98;;;;;;;-146.27;92.73;81918.16;5027637;28;20108;-72
2023/08/20 04:42:22;;;;;;;16.85;2.25;;;;;;;-146.27;92.52;81884.03;5028695;28;20030;-71
2023/08/20 04:44:47;;;;;;;8.57;2.28;;;;;;;-146.27;92.17;81855.91;5027055;28;20033;-72
2023/08/20 04:47:13;;;;;;;11.65;2.15;;;;;;;-146.27;92.60;81918.16;5027151;28;20481;-72
2023/08/20 04:49:38;;;;;;;9.82;2.40;;;;;;;-146.27;92.07;81890.06;5026530;28;20029;-72
2023/08/20 04:52:04;;;;;;;14.30;2.13;;;;;;;-146.27;92.15;81942.28;5024786;28;20033;-72
2023/08/20 04:54:29;;;;;;;8.93;2.05;;;;;;;-146.27;92.28;81902.09;5021595;28;20027;-74
2023/08/20 04:56:55;;;;;;;10.95;2.30;;;;;;;-146.27;92.43;81924.19;5022498;28;20152;-70
2023/08/20 04:59:20;;;;;;;16.98;2.70;;;;;;;-146.27;93.17;81924.19;5028057;28;20025;-72
2023/08/20 05:01:45;;;;;;;6.55;1.98;;;;;;;-146.27;92.91;81926.22;5017615;28;20033;-72
2023/08/20 05:04:11;;;;;;;11.68;3.05;;;;;;;-146.27;92.87;81928.22;5029197;28;20021;-70
2023/08/20 05:06:37;;;;;;;8.15;2.00;;;;;;;-146.27;92.84;81948.31;5025235;28;20060;-72
2023/08/20 05:09:03;;;;;;;9.40;2.55;;;;;;;-146.27;93.08;81954.31;5026214;28;20132;-72
2023/08/20 05:11:31;;;;;;;8.32;2.50;;;;;;;-146.27;92.73;81934.25;5020539;28;20037;-71
2023/08/20 05:13:56;;;;;;;42.30;14.35;;;;;;;-146.27;93.04;81962.34;5022646;28;20053;-72
2023/08/20 05:16:22;;;;;;;21.17;4.35;;;;;;;-146.27;93.60;81978.44;5028335;28;20511;-72
2023/08/20 05:18:47;;;;;;;10.90;2.28;;;;;;;-146.27;93.92;81964.38;5026643;28;20104;-72
2023/08/20 05:21:13;;;;;;;11.23;2.60;;;;;;;-146.27;93.92;81916.16;5024010;28;20026;-72
2023/08/20 05:23:40;;;;;;;14.60;2.92;;;;;;;-146.27;94.28;81926.22;5027606;28;20030;-72
2023/08/20 05:26:06;;;;;;;11.02;2.28;;;;;;;-146.27;94.18;81890.06;5024709;28;20033;-72
2023/08/20 05:28:32;;;;;;;9.45;2.72;;;;;;;-146.27;94.09;81902.09;5027446;28;20031;-71
2023/08/20 05:30:57;;;;;;;11.20;2.63;;;;;;;-146.27;94.22;81882.00;5026690;28;20108;-74
2023/08/20 05:33:23;;;;;;;13.32;3.20;;;;;;;-146.27;93.78;81871.97;5027020;28;20028;-70
2023/08/20 05:35:50;;;;;;;6.85;2.15;;;;;;;-146.27;93.44;81857.91;5025216;28;20463;-73
2023/08/20 05:38:16;;;;;;;6.95;2.20;;;;;;;-146.27;93.69;81861.94;5027582;28;20389;-72
2023/08/20 05:40:42;;;;;;;5.57;2.00;;;;;;;-146.27;93.52;81833.81;5026132;28;20104;-70
2023/08/20 05:43:08;;;;;;;16.48;2.90;;;;;;;-146.27;93.43;81827.78;5026729;28;20448;-71
2023/08/20 05:45:33;;;;;;;15.07;2.22;;;;;;;-146.27;93.44;81793.66;5027641;28;20033;-72
2023/08/20 05:47:58;;;;;;;5.88;2.13;;;;;;;-146.27;93.25;81817.75;5028557;28;20069;-70
2023/08/20 05:50:24;;;;;;;6.90;2.22;;;;;;;-146.27;93.19;81795.66;5024438;28;20047;-71
2023/08/20 05:52:49;;;;;;;14.85;2.38;;;;;;;-146.27;93.12;81765.53;5024903;28;20137;-72
2023/08/20 05:55:15;;;;;;;15.82;2.88;;;;;;;-146.27;93.42;81761.50;5017858;28;20036;-70
2023/08/20 05:57:42;;;;;;;6.03;1.70;;;;;;;-146.27;92.98;81729.38;5017851;28;20167;-70
2023/08/20 06:00:09;;;;;;;11.68;2.40;;;;;;;-146.27;92.79;81691.22;5021358;28;20125;-73
2023/08/20 06:02:34;;;;;;;10.88;2.72;;;;;;;-146.27;92.66;81677.16;5021529;28;20036;-71
2023/08/20 06:04:59;;;;;;;10.65;2.25;;;;;;;-146.27;92.71;81737.41;5018078;28;20017;-70
2023/08/20 06:07:25;;;;;;;9.95;2.00;;;;;;;-146.27;92.71;81693.22;5020044;28;20238;-71
2023/08/20 06:09:50;;;;;;;11.63;2.78;;;;;;;-146.27;92.56;81701.25;5022081;28;20083;-70
2023/08/20 06:12:16;;;;;;;13.65;2.60;;;;;;;-146.27;92.81;81705.28;5023501;28;20029;-71
2023/08/20 06:14:42;;;;;;;9.43;2.22;;;;;;;-146.27;92.68;81679.16;5020711;28;20324;-71
2023/08/20 06:17:07;;;;;;;7.90;2.25;;;;;;;-146.27;92.31;81634.97;5023431;28;20021;-72
2023/08/20 06:19:34;;;;;;;12.02;2.83;;;;;;;-146.27;92.12;81649.03;5024895;28;20365;-73
2023/08/20 06:21:59;;;;;;;15.65;3.10;;;;;;;-146.27;91.98;81614.88;5036663;28;20064;-71
2023/08/20 06:24:26;;;;;;;5.30;1.95;;;;;;;-146.27;91.58;81612.88;5022572;28;20107;-71
2023/08/20 06:26:52;;;;;;;8.30;2.03;;;;;;;-146.27;91.75;81628.94;5021939;28;20322;-71
2023/08/20 06:29:17;;;;;;;11.65;2.20;;;;;;;-146.27;91.53;81628.94;5024031;28;20034;-71
2023/08/20 06:31:43;;;;;;;7.45;2.65;;;;;;;-146.27;91.45;81600.84;5022552;28;20061;-72
2023/08/20 06:34:09;;;;;;;12.23;2.78;;;;;;;-146.27;91.38;81592.78;5022295;28;20490;-71
2023/08/20 06:36:35;;;;;;;6.85;2.13;;;;;;;-146.27;91.24;81556.66;5022558;28;20536;-70
2023/08/20 06:39:00;;;;;;;8.30;2.10;;;;;;;-146.27;90.74;81542.59;5023519;28;20255;-72
2023/08/20 06:41:26;;;;;;;13.00;3.13;;;;;;;-146.27;90.91;81542.59;5024342;28;20401;-71
2023/08/20 06:43:51;;;;;;;10.63;2.08;;;;;;;-146.27;90.32;81520.50;5029179;28;20389;-72
2023/08/20 06:46:17;;;;;;;8.57;2.22;;;;;;;-146.27;90.56;81524.50;5020913;28;20044;-72
2023/08/20 06:48:42;;;;;;;10.20;2.20;;;;;;;-146.27;90.77;81530.53;5021745;28;20094;-69
2023/08/20 06:51:12;;;;;;;13.23;2.28;;;;;;;-146.27;90.75;81484.34;5021626;28;20174;-72
2023/08/20 06:53:37;;;;;;;7.60;1.75;;;;;;;-146.27;90.53;81432.13;5026594;28;20080;-72
2023/08/20 06:56:03;;;;;;;17.30;2.70;;;;;;;-146.27;91.15;81536.56;5021100;28;20030;-72
2023/08/20 06:58:28;;;;;;;7.32;1.90;;;;;;;-146.27;90.17;81486.34;5020080;28;20038;-72
2023/08/20 07:00:54;;;;;;;8.35;1.92;;;;;;;-146.27;90.18;81460.25;5022029;28;20052;-72
2023/08/20 07:03:22;;;;;;;12.95;2.55;;;;;;;-146.27;90.21;81444.19;5030008;28;20032;-72
2023/08/20 07:05:47;;;;;;;10.55;1.98;;;;;;;-146.27;89.80;81420.06;5017855;28;20469;-75
2023/08/20 07:08:13;;;;;;;10.65;2.00;;;;;;;-146.27;89.88;81436.16;5020133;28;20052;-72
2023/08/20 07:10:38;;;;;;;8.45;1.90;;;;;;;-146.27;89.67;81456.22;5019185;28;20550;-72
2023/08/20 07:13:03;;;;;;;10.57;2.00;;;;;;;-146.27;89.23;81414.06;5023855;28;20018;-72
2023/08/20 07:15:29;;;;;;;15.20;2.22;;;;;;;-146.27;88.81;81387.94;5027149;28;20515;-71
2023/08/20 07:17:54;;;;;;;6.72;1.60;;;;;;;-146.27;88.63;81343.75;5022454;28;20057;-72
2023/08/20 07:20:20;;;;;;;9.65;2.30;;;;;;;-146.27;88.05;81355.81;5021049;28;20029;-72
2023/08/20 07:22:45;;;;;;;10.05;2.00;;;;;;;-146.27;88.18;81359.81;5023971;28;20101;-71
2023/08/20 07:25:10;;;;;;;6.85;1.48;;;;;;;-146.27;87.69;81339.75;5024280;28;20048;-68
2023/08/20 07:27:36;;;;;;;7.05;1.48;;;;;;;-146.27;87.61;81313.63;5024121;28;20474;-71
2023/08/20 07:30:02;;;;;;;9.30;1.52;;;;;;;-146.27;87.53;81271.47;5024526;28;20117;-72
2023/08/20 07:32:27;;;;;;;14.80;2.42;;;;;;;-146.27;86.91;81283.50;5026173;28;20022;-71
2023/08/20 07:34:53;;;;;;;8.85;1.95;;;;;;;-146.27;86.51;81227.28;5029096;28;20052;-72
2023/08/20 07:37:18;;;;;;;17.73;2.13;;;;;;;-146.27;86.10;81283.50;5029659;28;20029;-71
2023/08/20 07:39:44;;;;;;;10.68;2.00;;;;;;;-146.27;85.38;81295.56;5023326;28;20061;-71
2023/08/20 07:42:10;;;;;;;12.25;1.80;;;;;;;-146.27;85.45;81303.59;5029056;28;20032;-71
2023/08/20 07:44:36;;;;;;;9.90;2.20;;;;;;;-146.27;84.88;81263.44;5029368;28;20025;-71
2023/08/20 07:47:01;;;;;;;8.00;1.65;;;;;;;-146.27;85.04;81241.34;5030669;28;20359;-72
2023/08/20 07:49:27;;;;;;;9.75;1.65;;;;;;;-146.27;84.83;81191.13;5020823;28;20085;-72
2023/08/20 07:51:54;;;;;;;9.45;2.13;;;;;;;-146.27;84.27;81207.19;5025918;28;20072;-71
2023/08/20 07:54:19;;;;;;;9.75;2.05;;;;;;;-146.27;84.14;81163.03;5030484;28;20086;-72
2023/08/20 07:56:44;;;;;;;7.78;1.30;;;;;;;-146.27;84.19;81167.03;5024534;28;20025;-72
2023/08/20 07:59:10;;;;;;;9.25;1.63;;;;;;;-146.27;84.02;81142.94;5027012;28;20045;-70
2023/08/20 08:01:37;;;;;;;9.05;1.77;;;;;;;-146.27;84.34;81094.75;5029254;28;20104;-72
2023/08/20 08:04:02;;;;;;;5.50;1.75;;;;;;;-146.27;83.68;81046.53;5030130;28;20021;-73
2023/08/20 08:06:28;;;;;;;6.32;1.70;;;;;;;-146.27;83.50;81034.50;5027672;28;20048;-72
2023/08/20 08:08:53;;;;;;;8.07;1.70;;;;;;;-146.27;81.28;81034.50;5027646;28;20059;-72
2023/08/20 08:11:18;;;;;;;12.40;1.92;;;;;;;-146.27;81.16;81018.44;5026312;28;20026;-72
2023/08/20 08:13:44;;;;;;;11.65;2.25;;;;;;;-146.27;81.06;81014.41;5027452;28;20112;-72
2023/08/20 08:16:09;;;;;;;4.40;1.05;;;;;;;-146.27;81.07;80950.16;5022842;28;20017;-71
2023/08/20 08:18:34;;;;;;;10.10;1.88;;;;;;;-146.27;80.48;80970.25;5028346;28;20048;-72
2023/08/20 08:21:00;;;;;;;8.43;1.70;;;;;;;-146.27;79.50;80901.97;5024006;28;20804;-72
2023/08/20 08:23:25;;;;;;;7.63;1.42;;;;;;;-146.27;78.81;80887.91;5024559;28;20064;-71
2023/08/20 08:25:51;;;;;;;5.28;1.45;;;;;;;-146.27;78.94;80881.88;5027304;28;20469;-69
2023/08/20 08:28:16;;;;;;;7.97;1.90;;;;;;;-146.27;78.70;80793.53;5025561;28;20048;-71
2023/08/20 08:30:42;;;;;;;8.82;1.95;;;;;;;-146.27;78.27;80803.56;5022973;28;20487;-72
2023/08/20 08:33:07;;;;;;;4.97;1.20;;;;;;;-146.27;77.59;80777.47;5025528;28;20057;-71
2023/08/20 08:35:32;;;;;;;4.78;1.60;;;;;;;-146.27;76.20;80835.69;5023457;28;20501;-70
2023/08/20 08:37:58;;;;;;;7.50;1.30;;;;;;;-146.27;75.51;80767.44;5023884;28;20399;-72
2023/08/20 08:40:29;;;;;;;6.47;1.60;;;;;;;-146.27;74.70;80729.28;5026250;28;20147;-71
2023/08/20 08:42:54;;;;;;;8.13;1.25;;;;;;;-146.27;74.91;80721.25;5028140;28;20022;-71
2023/08/20 08:45:21;;;;;;;5.47;1.33;;;;;;;-146.27;74.63;80729.28;5029392;28;20036;-71
2023/08/20 08:47:47;;;;;;;5.68;1.17;;;;;;;-146.27;74.97;80642.94;5027712;28;20091;-71
2023/08/20 08:50:13;;;;;;;11.88;1.48;;;;;;;-146.27;74.72;80685.09;5027793;28;20106;-71
2023/08/20 08:52:41;;;;;;;8.30;1.67;;;;;;;-146.27;75.23;80606.78;5025789;28;20120;-71
2023/08/20 08:55:08;;;;;;;10.23;2.22;;;;;;;-146.27;75.69;80632.91;5026461;28;20029;-72
2023/08/20 08:57:37;;;;;;;7.50;1.50;;;;;;;-146.27;75.69;80614.81;5028826;28;20025;-74
2023/08/20 09:00:03;;;;;;;7.90;1.40;;;;;;;-146.27;75.11;80572.66;5027810;28;20359;-72
2023/08/20 09:02:28;;;;;;;8.00;1.40;;;;;;;-146.27;73.95;80576.66;5024405;28;20087;-72
2023/08/20 09:04:54;;;;;;;6.55;1.35;;;;;;;-146.27;71.99;80596.75;5027182;28;20512;-72
2023/08/20 09:07:20;;;;;;;5.15;1.35;;;;;;;-146.27;72.14;80520.44;5026715;28;20434;-71
2023/08/20 09:09:46;;;;;;;4.63;1.40;;;;;;;-146.27;70.67;80514.44;5028730;28;20017;-72
2023/08/20 09:12:16;;;;;;;7.75;1.70;;;;;;;-146.27;71.44;80564.63;5023105;28;20033;-71
2023/08/20 09:14:46;;;;;;;6.90;1.25;;;;;;;-146.27;71.50;80488.31;5024386;28;20038;-70
2023/08/20 09:17:12;;;;;;;6.40;1.20;;;;;;;-146.27;72.07;80440.13;5029167;28;20120;-72
2023/08/20 09:19:37;;;;;;;8.75;1.80;;;;;;;-146.27;71.98;80468.25;5029134;28;20172;-71
2023/08/20 09:22:03;;;;;;;9.40;2.17;;;;;;;-146.27;72.42;80381.91;5027648;28;20478;-69
2023/08/20 09:24:37;;;;;;;9.07;1.42;;;;;;;-146.27;70.89;80363.84;5025552;28;20420;-72
2023/08/20 09:27:08;;;;;;;9.60;1.55;;;;;;;-146.27;71.43;80496.34;5028520;28;20049;-75
2023/08/20 09:29:45;;;;;;;9.27;1.45;;;;;;;-146.27;71.67;80412.03;5028782;28;20501;-73
2023/08/20 09:32:18;;;;;;;5.10;1.23;;;;;;;-146.27;71.40;80353.81;5024996;28;20029;-73
2023/08/20 09:34:44;;;;;;;8.65;1.48;;;;;;;-146.27;71.14;80359.81;5026520;28;20029;-74
2023/08/20 09:37:13;;;;;;;4.95;1.17;;;;;;;-146.27;70.61;80293.56;5028528;28;20612;-73
2023/08/20 09:39:39;;;;;;;5.72;1.52;;;;;;;-146.27;70.19;80261.44;5029207;28;20037;-73
2023/08/20 09:42:06;;;;;;;8.15;1.30;;;;;;;-146.27;70.07;80253.41;5022556;28;20460;-73
2023/08/20 09:44:38;;;;;;;12.57;1.67;;;;;;;-146.27;69.40;80263.44;5031329;28;20025;-73
2023/08/20 09:47:06;;;;;;;7.32;1.45;;;;;;;-146.27;69.57;80261.44;5029127;28;20100;-72
2023/08/20 09:49:37;;;;;;;7.60;1.55;;;;;;;-146.27;69.52;80203.22;5032788;28;20112;-70
2023/08/20 09:52:07;;;;;;;5.60;1.30;;;;;;;-146.27;68.19;80102.84;5029059;28;20025;-72
2023/08/20 09:54:46;;;;;;;5.10;1.10;;;;;;;-146.27;66.71;80215.25;5031137;28;20032;-70
2023/08/20 09:57:20;;;;;;;6.88;1.05;;;;;;;-146.27;68.28;80070.72;5025615;28;20029;-71
2023/08/20 09:59:47;;;;;;;5.85;1.42;;;;;;;-146.27;67.00;79990.41;5032427;28;20052;-70
2023/08/20 10:02:14;;;;;;;3.45;0.93;;;;;;;-146.27;65.96;80054.66;5030380;28;20033;-72
2023/08/20 10:04:39;;;;;;;6.63;1.30;;;;;;;-146.27;64.46;79992.41;5031898;28;20057;-71
2023/08/20 10:07:05;;;;;;;6.13;1.08;;;;;;;-146.27;64.48;80012.50;5032003;28;20068;-70
2023/08/20 10:09:31;;;;;;;6.75;1.30;;;;;;;-146.27;62.56;79986.41;5032903;28;20109;-68
2023/08/20 10:11:56;;;;;;;8.23;1.65;;;;;;;-146.27;62.57;79839.84;5032643;28;20488;-71
2023/08/20 10:14:22;;;;;;;4.28;1.00;;;;;;;-146.27;61.36;79886.00;5028217;28;20029;-70
2023/08/20 10:16:47;;;;;;;7.28;1.23;;;;;;;-146.27;59.83;79950.25;5026923;28;20021;-71
2023/08/20 10:19:16;;;;;;;5.63;1.08;;;;;;;-146.27;60.25;79841.84;5030603;28;20401;-72
2023/08/20 10:21:49;;;;;;;9.70;1.27;;;;;;;-146.27;58.95;79731.44;5031169;28;20599;-72
2023/08/20 10:24:20;;;;;;;10.35;1.52;;;;;;;-146.27;59.17;79753.53;5018303;28;20385;-71
2023/08/20 10:26:48;;;;;;;5.28;1.23;;;;;;;-146.27;58.47;79683.25;5025638;28;20029;-70
2023/08/20 10:29:39;;;;;;;7.47;1.48;;;;;;;-146.27;59.50;79705.34;5029246;28;20152;-70
2023/08/20 10:32:11;;;;;;;6.75;1.55;;;;;;;-146.27;60.54;79687.28;5030100;28;20029;-73
2023/08/20 10:34:39;;;;;;;5.43;1.75;;;;;;;-146.27;60.98;79637.09;5030148;28;20481;-71
2023/08/20 10:37:13;;;;;;;5.50;1.15;;;;;;;-146.27;60.37;79486.53;5029377;28;20033;-72
2023/08/20 10:39:39;;;;;;;6.57;0.88;;;;;;;-146.27;60.82;79376.13;5030757;28;20064;-70
2023/08/20 10:42:19;;;;;;;5.80;1.02;;;;;;;-146.27;58.81;79329.97;5031330;28;20447;-73
2023/08/20 10:45:05;;;;;;;5.30;1.52;;;;;;;-146.27;55.19;79370.09;5029277;28;20040;-71
2023/08/20 10:47:48;;;;;;;5.40;1.23;;;;;;;-146.27;57.77;79358.06;5030304;28;20029;-74
2023/08/20 10:50:18;;;;;;;10.30;1.25;;;;;;;-146.27;57.33;79251.69;5026848;28;20037;-72
2023/08/20 10:52:49;;;;;;;6.30;1.58;;;;;;;-146.27;55.74;79217.56;5023346;28;20036;-70
2023/08/20 10:55:15;;;;;;;4.32;1.33;;;;;;;-146.27;55.77;79217.56;5029943;28;20037;-73
2023/08/20 10:57:41;;;;;;;7.10;1.30;;;;;;;-146.27;56.46;79221.56;5030486;28;20025;-73
2023/08/20 11:00:10;;;;;;;5.70;1.38;;;;;;;-146.27;54.81;79227.59;5029767;28;20052;-73
2023/08/20 11:02:36;;;;;;;6.60;1.35;;;;;;;-146.27;54.13;79129.25;5027017;28;20022;-74
2023/08/20 11:05:04;;;;;;;3.90;1.13;;;;;;;-146.27;55.89;79277.78;5028740;28;20053;-73
2023/08/20 11:07:31;;;;;;;4.97;1.20;;;;;;;-146.27;54.55;79179.41;5026536;28;20099;-73
2023/08/20 11:09:57;;;;;;;6.10;1.30;;;;;;;-146.27;53.78;79038.91;5027735;28;20034;-75
2023/08/20 11:12:23;;;;;;;5.55;1.20;;;;;;;-146.27;52.25;79046.94;5028422;28;20033;-73